createdAt,value
2018-12-02T00:01:06.661Z,4.53
2018-12-02T00:03:34.909Z,4.51
2018-12-02T00:06:03.135Z,4.53
2018-12-02T00:08:31.375Z,4.53
2018-12-02T00:10:59.659Z,4.55
2018-12-02T00:13:28.094Z,4.56
2018-12-02T00:15:56.331Z,4.56
2018-12-02T00:18:24.553Z,4.57
2018-12-02T00:20:52.783Z,4.60
2018-12-02T00:23:21.012Z,4.60
2018-12-02T00:25:49.273Z,4.59
2018-12-02T00:28:17.469Z,4.59
2018-12-02T00:30:45.703Z,4.62
2018-12-02T00:33:15.571Z,4.62
2018-12-02T00:35:45.642Z,4.62
2018-12-02T00:38:15.476Z,4.63
2018-12-02T00:40:47.931Z,4.64
2018-12-02T00:43:36.906Z,4.67
2018-12-02T00:46:25.513Z,4.68
2018-12-02T00:48:53.700Z,4.68
2018-12-02T00:51:21.928Z,4.73
2018-12-02T00:53:50.155Z,4.76
2018-12-02T00:56:37.299Z,4.76
2018-12-02T00:59:05.530Z,4.76
2018-12-02T01:01:33.810Z,4.75
2018-12-02T01:04:02.026Z,4.77
2018-12-02T01:06:30.306Z,4.81
2018-12-02T01:08:58.649Z,4.81
2018-12-02T01:11:26.902Z,4.84
2018-12-02T01:13:55.133Z,4.83
2018-12-02T01:16:23.386Z,4.85
2018-12-02T01:18:51.594Z,4.86
2018-12-02T01:21:19.864Z,4.84
2018-12-02T01:23:48.087Z,4.88
2018-12-02T01:26:16.315Z,4.90
2018-12-02T01:28:44.522Z,4.91
2018-12-02T01:31:12.776Z,4.92
2018-12-02T01:33:40.998Z,4.93
2018-12-02T01:36:09.239Z,4.89
2018-12-02T01:38:37.447Z,4.91
2018-12-02T01:41:06.166Z,4.94
2018-12-02T01:43:34.370Z,4.95
2018-12-02T01:46:02.614Z,4.96
2018-12-02T01:48:30.823Z,5.00
2018-12-02T01:50:59.081Z,4.99
2018-12-02T01:53:27.311Z,5.01
2018-12-02T01:55:55.514Z,5.01
2018-12-02T01:58:23.741Z,5.03
2018-12-02T02:00:51.951Z,5.03
2018-12-02T02:03:20.183Z,5.01
2018-12-02T02:05:48.392Z,5.02
2018-12-02T02:08:16.634Z,5.03
2018-12-02T02:10:44.840Z,5.05
2018-12-02T02:13:13.067Z,5.06
2018-12-02T02:15:41.295Z,5.05
2018-12-02T02:18:09.538Z,5.05
2018-12-02T02:20:37.745Z,5.07
2018-12-02T02:23:06.429Z,5.08
2018-12-02T02:25:34.626Z,5.09
2018-12-02T02:28:02.850Z,5.11
2018-12-02T02:30:31.105Z,5.09
2018-12-02T02:32:59.333Z,5.09
2018-12-02T02:35:27.550Z,5.12
2018-12-02T02:37:57.027Z,5.11
2018-12-02T02:40:44.722Z,5.16
2018-12-02T02:43:12.969Z,5.17
2018-12-02T02:45:41.180Z,5.20
2018-12-02T02:48:09.428Z,5.22
2018-12-02T02:50:37.650Z,5.24
2018-12-02T02:53:05.913Z,5.24
2018-12-02T02:55:34.117Z,5.23
2018-12-02T02:58:02.358Z,5.25
2018-12-02T03:00:30.571Z,5.27
2018-12-02T03:02:58.778Z,5.24
2018-12-02T03:05:27.007Z,5.27
2018-12-02T03:07:55.226Z,5.30
2018-12-02T03:10:23.430Z,5.29
2018-12-02T03:12:52.651Z,5.31
2018-12-02T03:15:21.513Z,5.31
2018-12-02T03:17:49.737Z,5.30
2018-12-02T03:20:18.728Z,5.30
2018-12-02T03:22:50.983Z,5.30
2018-12-02T03:25:20.112Z,5.31
2018-12-02T03:27:48.352Z,5.30
2018-12-02T03:30:35.999Z,5.32
2018-12-02T03:33:04.219Z,5.33
2018-12-02T03:35:32.459Z,5.32
2018-12-02T03:38:00.661Z,5.33
2018-12-02T03:40:29.209Z,5.32
2018-12-02T03:42:57.461Z,5.32
2018-12-02T03:45:26.696Z,5.30
2018-12-02T03:47:54.905Z,5.34
2018-12-02T03:50:23.845Z,5.30
2018-12-02T03:52:52.063Z,5.34
2018-12-02T03:55:20.290Z,5.33
2018-12-02T03:57:48.489Z,5.34
2018-12-02T04:00:36.143Z,5.34
2018-12-02T04:03:04.384Z,5.35
2018-12-02T04:05:32.616Z,5.34
2018-12-02T04:08:00.833Z,5.36
2018-12-02T04:10:29.051Z,5.36
2018-12-02T04:12:57.273Z,5.37
2018-12-02T04:15:25.874Z,5.38
2018-12-02T04:17:54.096Z,5.37
2018-12-02T04:20:22.493Z,5.36
2018-12-02T04:22:51.630Z,5.37
2018-12-02T04:25:21.012Z,5.38
2018-12-02T04:27:49.262Z,5.38
2018-12-02T04:30:18.423Z,5.39
2018-12-02T04:32:47.597Z,5.40
2018-12-02T04:35:35.264Z,5.40
2018-12-02T04:38:03.529Z,5.40
2018-12-02T04:40:31.720Z,5.38
2018-12-02T04:42:59.968Z,5.38
2018-12-02T04:45:28.177Z,5.36
2018-12-02T04:47:56.445Z,5.37
2018-12-02T04:50:25.365Z,5.35
2018-12-02T04:52:53.721Z,5.32
2018-12-02T04:55:21.971Z,5.35
2018-12-02T04:57:50.205Z,5.32
2018-12-02T05:00:19.398Z,5.30
2018-12-02T05:02:51.307Z,5.30
2018-12-02T05:05:27.182Z,5.29
2018-12-02T05:07:55.432Z,5.26
2018-12-02T05:10:23.636Z,5.27
2018-12-02T05:12:52.216Z,5.25
2018-12-02T05:15:21.282Z,5.26
2018-12-02T05:17:49.514Z,5.25
2018-12-02T05:20:21.446Z,5.24
2018-12-02T05:22:49.658Z,5.24
2018-12-02T05:25:18.722Z,5.22
2018-12-02T05:27:47.000Z,5.22
2018-12-02T05:30:35.107Z,5.20
2018-12-02T05:33:03.349Z,5.22
2018-12-02T05:35:31.569Z,5.25
2018-12-02T05:37:59.797Z,5.25
2018-12-02T05:40:28.021Z,5.27
2018-12-02T05:42:56.259Z,5.28
2018-12-02T05:45:24.474Z,5.29
2018-12-02T05:47:52.829Z,5.28
2018-12-02T05:50:24.873Z,5.30
2018-12-02T05:53:02.341Z,5.27
2018-12-02T05:55:50.538Z,5.27
2018-12-02T05:58:18.784Z,5.25
2018-12-02T06:00:47.000Z,5.22
2018-12-02T06:03:15.231Z,5.20
2018-12-02T06:05:43.464Z,5.23
2018-12-02T06:08:11.689Z,5.23
2018-12-02T06:10:39.909Z,5.22
2018-12-02T06:13:08.155Z,5.22
2018-12-02T06:15:36.364Z,5.22
2018-12-02T06:18:04.578Z,5.24
2018-12-02T06:20:32.805Z,5.25
2018-12-02T06:23:01.005Z,5.26
2018-12-02T06:25:29.219Z,5.30
2018-12-02T06:27:57.446Z,5.30
2018-12-02T06:30:26.726Z,5.36
2018-12-02T06:33:14.969Z,5.40
2018-12-02T06:35:43.210Z,5.40
2018-12-02T06:38:11.427Z,5.44
2018-12-02T06:40:39.654Z,5.39
2018-12-02T06:43:07.865Z,5.43
2018-12-02T06:45:36.104Z,5.45
2018-12-02T06:48:04.312Z,5.42
2018-12-02T06:50:32.554Z,5.47
2018-12-02T06:53:00.787Z,5.47
2018-12-02T06:56:07.816Z,5.49
2018-12-02T06:58:39.017Z,5.51
2018-12-02T07:01:28.177Z,5.48
2018-12-02T07:04:18.066Z,5.52
2018-12-02T07:06:46.339Z,5.55
2018-12-02T07:09:14.566Z,5.58
2018-12-02T07:11:42.792Z,5.59
2018-12-02T07:14:10.997Z,5.59
2018-12-02T07:16:39.308Z,5.62
2018-12-02T07:19:09.859Z,5.65
2018-12-02T07:21:38.238Z,5.66
2018-12-02T07:24:07.560Z,5.68
2018-12-02T07:26:35.796Z,5.68
2018-12-02T07:29:04.003Z,5.69
2018-12-02T07:31:32.234Z,5.72
2018-12-02T07:34:00.444Z,5.75
2018-12-02T07:36:28.686Z,5.74
2018-12-02T07:39:28.545Z,5.79
2018-12-02T07:41:56.787Z,5.79
2018-12-02T07:44:25.000Z,5.82
2018-12-02T07:46:53.233Z,5.81
2018-12-02T07:49:21.431Z,5.85
2018-12-02T07:51:50.937Z,5.85
2018-12-02T07:54:19.117Z,5.85
2018-12-02T07:56:47.302Z,5.87
2018-12-02T07:59:15.535Z,5.87
2018-12-02T08:01:43.726Z,5.87
2018-12-02T08:04:11.972Z,5.90
2018-12-02T08:06:40.204Z,5.93
2018-12-02T08:09:08.425Z,5.93
2018-12-02T08:11:36.640Z,5.92
2018-12-02T08:14:04.866Z,5.93
2018-12-02T08:16:33.093Z,5.95
2018-12-02T08:19:01.355Z,5.97
2018-12-02T08:21:29.566Z,5.98
2018-12-02T08:23:57.774Z,5.94
2018-12-02T08:26:26.489Z,5.99
2018-12-02T08:28:54.726Z,5.98
2018-12-02T08:31:22.937Z,6.01
2018-12-02T08:33:51.534Z,6.04
2018-12-02T08:36:19.771Z,6.05
2018-12-02T08:38:48.027Z,6.07
2018-12-02T08:41:16.280Z,6.09
2018-12-02T08:43:44.502Z,6.14
2018-12-02T08:46:12.697Z,6.14
2018-12-02T08:48:40.954Z,6.14
2018-12-02T08:51:09.168Z,6.16
2018-12-02T08:53:37.392Z,6.16
2018-12-02T08:56:05.606Z,6.15
2018-12-02T08:58:33.830Z,6.13
2018-12-02T09:01:02.088Z,6.18
2018-12-02T09:03:30.303Z,6.26
2018-12-02T09:05:58.539Z,6.28
2018-12-02T09:08:26.801Z,6.30
2018-12-02T09:10:55.022Z,6.28
2018-12-02T09:13:23.235Z,6.38
2018-12-02T09:15:51.477Z,6.42
2018-12-02T09:18:19.706Z,6.44
2018-12-02T09:20:47.927Z,6.47
2018-12-02T09:23:16.127Z,6.50
2018-12-02T09:25:44.350Z,6.52
2018-12-02T09:28:12.558Z,6.52
2018-12-02T09:30:40.827Z,6.52
2018-12-02T09:33:09.030Z,6.55
2018-12-02T09:35:37.251Z,6.58
2018-12-02T09:38:06.017Z,6.58
2018-12-02T09:40:34.241Z,6.61
2018-12-02T09:43:02.479Z,6.65
2018-12-02T09:45:30.938Z,6.67
2018-12-02T09:48:18.586Z,6.71
2018-12-02T09:50:46.821Z,6.72
2018-12-02T09:53:15.049Z,6.79
2018-12-02T09:55:45.274Z,6.77
2018-12-02T09:58:32.943Z,6.89
2018-12-02T10:01:01.240Z,6.88
2018-12-02T10:03:29.444Z,6.90
2018-12-02T10:05:57.691Z,6.95
2018-12-02T10:08:25.896Z,6.95
2018-12-02T10:10:54.106Z,6.98
2018-12-02T10:13:23.484Z,7.04
2018-12-02T10:15:51.693Z,7.04
2018-12-02T10:18:19.902Z,7.12
2018-12-02T10:20:48.120Z,7.15
2018-12-02T10:23:16.348Z,7.22
2018-12-02T10:28:32.752Z,7.29
2018-12-02T10:31:00.967Z,7.36
2018-12-02T10:33:29.193Z,7.39
2018-12-02T10:35:57.417Z,7.42
2018-12-02T10:38:25.648Z,7.47
2018-12-02T10:40:53.897Z,7.50
2018-12-02T10:43:22.133Z,7.55
2018-12-02T10:45:50.400Z,7.53
2018-12-02T10:48:18.690Z,7.59
2018-12-02T10:50:46.945Z,7.62
2018-12-02T10:53:17.218Z,7.62
2018-12-02T10:55:49.667Z,7.66
2018-12-02T10:58:37.324Z,7.66
2018-12-02T11:01:27.623Z,7.66
2018-12-02T11:03:55.858Z,7.72
2018-12-02T11:06:24.070Z,7.72
2018-12-02T11:08:52.281Z,7.77
2018-12-02T11:11:20.501Z,7.75
2018-12-02T11:13:48.733Z,7.76
2018-12-02T11:16:16.956Z,7.77
2018-12-02T11:18:45.213Z,7.80
2018-12-02T11:21:13.451Z,7.84
2018-12-02T11:23:41.680Z,7.91
2018-12-02T11:26:09.875Z,7.89
2018-12-02T11:28:38.103Z,7.93
2018-12-02T11:31:07.022Z,7.96
2018-12-02T11:33:35.262Z,7.92
2018-12-02T11:36:03.527Z,7.95
2018-12-02T11:38:31.749Z,7.94
2018-12-02T11:40:59.988Z,8.01
2018-12-02T11:43:28.239Z,8.01
2018-12-02T11:45:56.447Z,7.97
2018-12-02T11:48:24.651Z,8.04
2018-12-02T11:50:52.911Z,8.07
2018-12-02T11:53:21.156Z,8.08
2018-12-02T11:55:49.399Z,8.11
2018-12-02T11:58:17.580Z,8.13
2018-12-02T12:00:45.789Z,8.12
2018-12-02T12:03:14.080Z,8.13
2018-12-02T12:05:42.301Z,8.12
2018-12-02T12:08:11.687Z,8.21
2018-12-02T12:10:39.964Z,8.11
2018-12-02T12:13:08.198Z,8.13
2018-12-02T12:15:37.162Z,8.16
2018-12-02T12:18:06.747Z,8.15
2018-12-02T12:20:39.129Z,8.14
2018-12-02T12:23:08.720Z,8.20
2018-12-02T12:25:36.943Z,8.16
2018-12-02T12:28:05.491Z,8.16
2018-12-02T12:30:33.876Z,8.20
2018-12-02T12:33:02.104Z,8.08
2018-12-02T12:35:30.481Z,8.08
2018-12-02T12:37:58.687Z,8.13
2018-12-02T12:40:37.465Z,8.03
2018-12-02T12:43:28.844Z,8.09
2018-12-02T12:45:57.568Z,7.94
2018-12-02T12:48:25.761Z,7.99
2018-12-02T12:50:54.001Z,7.98
2018-12-02T12:53:22.212Z,7.97
2018-12-02T12:55:51.042Z,7.87
2018-12-02T12:58:19.206Z,7.91
2018-12-02T13:00:47.693Z,7.92
2018-12-02T13:03:15.966Z,7.91
2018-12-02T13:05:44.699Z,7.87
2018-12-02T13:08:14.361Z,7.83
2018-12-02T13:10:42.572Z,7.82
2018-12-02T13:13:10.820Z,7.86
2018-12-02T13:15:39.043Z,7.90
2018-12-02T13:18:08.549Z,7.85
2018-12-02T13:20:56.182Z,7.83
2018-12-02T13:23:24.424Z,7.81
2018-12-02T13:25:52.625Z,7.83
2018-12-02T13:28:20.865Z,7.81
2018-12-02T13:30:49.247Z,7.82
2018-12-02T13:33:17.488Z,7.80
2018-12-02T13:35:45.720Z,7.83
2018-12-02T13:38:13.945Z,7.78
2018-12-02T13:40:43.072Z,7.77
2018-12-02T13:43:30.762Z,7.85
2018-12-02T13:45:58.995Z,7.85
2018-12-02T13:48:27.236Z,7.78
2018-12-02T13:50:55.442Z,7.79
2018-12-02T13:53:23.677Z,7.75
2018-12-02T13:55:52.193Z,7.74
2018-12-02T13:58:20.409Z,7.73
2018-12-02T14:00:48.644Z,7.74
2018-12-02T14:03:16.892Z,7.71
2018-12-02T14:06:05.057Z,7.71
2018-12-02T14:08:33.306Z,7.69
2018-12-02T14:11:01.515Z,7.71
2018-12-02T14:13:29.893Z,7.61
2018-12-02T14:16:36.908Z,7.60
2018-12-02T14:19:26.151Z,7.61
2018-12-02T14:21:54.391Z,7.65
2018-12-02T14:24:22.637Z,7.55
2018-12-02T14:26:51.323Z,7.61
2018-12-02T14:29:30.856Z,7.53
2018-12-02T14:32:00.880Z,7.57
2018-12-02T14:34:29.254Z,7.55
2018-12-02T14:36:57.481Z,7.59
2018-12-02T14:39:25.739Z,7.54
2018-12-02T14:41:53.950Z,7.56
2018-12-02T14:44:22.196Z,7.49
2018-12-02T14:46:50.403Z,7.53
2018-12-02T14:49:18.674Z,7.54
2018-12-02T14:51:46.892Z,7.50
2018-12-02T14:54:15.148Z,7.54
2018-12-02T14:56:43.449Z,7.47
2018-12-02T14:59:11.588Z,7.42
2018-12-02T15:01:39.827Z,7.46
2018-12-02T15:04:08.027Z,7.47
2018-12-02T15:06:36.275Z,7.48
2018-12-02T15:09:07.832Z,7.43
2018-12-02T15:11:36.105Z,7.38
2018-12-02T15:14:04.907Z,7.42
2018-12-02T15:16:33.158Z,7.41
2018-12-02T15:19:01.368Z,7.37
2018-12-02T15:21:29.610Z,7.35
2018-12-02T15:23:57.830Z,7.31
2018-12-02T15:26:26.060Z,7.34
2018-12-02T15:28:54.295Z,7.32
2018-12-02T15:31:22.588Z,7.27
2018-12-02T15:33:51.127Z,7.27
2018-12-02T15:36:19.410Z,7.32
2018-12-02T15:38:47.660Z,7.32
2018-12-02T15:41:15.927Z,7.33
2018-12-02T15:43:44.142Z,7.36
2018-12-02T15:46:12.393Z,7.33
2018-12-02T15:48:40.598Z,7.33
2018-12-02T15:51:28.314Z,7.29
2018-12-02T15:53:56.538Z,7.28
2018-12-02T15:56:24.749Z,7.31
2018-12-02T15:58:52.969Z,7.32
2018-12-02T16:01:21.196Z,7.34
2018-12-02T16:03:49.406Z,7.30
2018-12-02T16:06:17.649Z,7.33
2018-12-02T16:08:45.864Z,7.32
2018-12-02T16:11:14.098Z,7.32
2018-12-02T16:13:42.323Z,7.33
2018-12-02T16:16:10.550Z,7.37
2018-12-02T16:18:38.794Z,7.38
2018-12-02T16:21:07.409Z,7.41
2018-12-02T16:23:35.726Z,7.42
2018-12-02T16:26:03.965Z,7.37
2018-12-02T16:28:32.186Z,7.42
2018-12-02T16:31:00.416Z,7.43
2018-12-02T16:33:28.634Z,7.42
2018-12-02T16:35:56.833Z,7.44
2018-12-02T16:38:25.090Z,7.48
2018-12-02T16:40:53.423Z,7.50
2018-12-02T16:43:21.663Z,7.45
2018-12-02T16:45:49.877Z,7.48
2018-12-02T16:48:18.191Z,7.49
2018-12-02T16:50:47.730Z,7.52
2018-12-02T16:53:21.405Z,7.51
2018-12-02T16:56:09.887Z,7.51
2018-12-02T16:59:16.942Z,7.53
2018-12-02T17:01:47.597Z,7.57
2018-12-02T17:04:15.845Z,7.57
2018-12-02T17:06:44.103Z,7.60
2018-12-02T17:09:13.125Z,7.61
2018-12-02T17:11:42.298Z,7.64
2018-12-02T17:14:10.546Z,7.63
2018-12-02T17:16:38.802Z,7.64
2018-12-02T17:19:07.871Z,7.65
2018-12-02T17:21:36.076Z,7.66
2018-12-02T17:24:04.627Z,7.70
2018-12-02T17:26:32.894Z,7.71
2018-12-02T17:29:01.130Z,7.73
2018-12-02T17:31:50.115Z,7.75
2018-12-02T17:34:18.386Z,7.74
2018-12-02T17:36:46.588Z,7.78
2018-12-02T17:39:16.725Z,7.79
2018-12-02T17:41:47.435Z,7.81
2018-12-02T17:44:15.717Z,7.82
2018-12-02T17:46:43.929Z,7.82
2018-12-02T17:49:12.169Z,7.84
2018-12-02T17:51:40.378Z,7.87
2018-12-02T17:54:08.615Z,7.89
2018-12-02T17:56:36.834Z,7.89
2018-12-02T17:59:05.260Z,7.94
2018-12-02T18:01:33.403Z,7.94
2018-12-02T18:04:01.639Z,7.97
2018-12-02T18:06:29.854Z,8.00
2018-12-02T18:08:58.110Z,8.00
2018-12-02T18:11:26.316Z,8.02
2018-12-02T18:13:54.718Z,8.03
2018-12-02T18:16:22.936Z,8.05
2018-12-02T18:18:51.143Z,8.08
2018-12-02T18:21:19.368Z,8.09
2018-12-02T18:23:47.809Z,8.11
2018-12-02T18:26:15.987Z,8.14
2018-12-02T18:28:44.193Z,8.15
2018-12-02T18:31:12.417Z,8.15
2018-12-02T18:33:40.798Z,8.21
2018-12-02T18:36:29.565Z,8.21
2018-12-02T18:38:57.847Z,8.22
2018-12-02T18:42:04.866Z,8.24
2018-12-02T18:44:33.169Z,8.26
2018-12-02T18:47:01.418Z,8.27
2018-12-02T18:49:29.674Z,8.30
2018-12-02T18:51:57.902Z,8.34
2018-12-02T18:54:26.175Z,8.33
2018-12-02T18:56:54.385Z,8.38
2018-12-02T18:59:22.599Z,8.39
2018-12-02T19:01:50.822Z,8.42
2018-12-02T19:04:19.028Z,8.44
2018-12-02T19:06:47.290Z,8.46
2018-12-02T19:09:15.690Z,8.48
2018-12-02T19:11:43.951Z,8.50
2018-12-02T19:14:12.160Z,8.53
2018-12-02T19:16:40.385Z,8.55
2018-12-02T19:19:08.944Z,8.58
2018-12-02T19:21:37.224Z,8.60
2018-12-02T19:24:06.683Z,8.63
2018-12-02T19:26:34.961Z,8.68
2018-12-02T19:29:03.174Z,8.69
2018-12-02T19:31:31.427Z,8.72
2018-12-02T19:33:59.712Z,8.73
2018-12-02T19:36:30.313Z,8.75
2018-12-02T19:38:58.545Z,8.77
2018-12-02T19:41:26.810Z,8.79
2018-12-02T19:43:55.062Z,8.81
2018-12-02T19:46:23.318Z,8.85
2018-12-02T19:48:51.673Z,8.84
2018-12-02T19:51:19.954Z,8.87
2018-12-02T19:53:48.173Z,8.90
2018-12-02T19:56:16.424Z,8.93
2018-12-02T19:58:44.626Z,8.95
2018-12-02T20:01:12.859Z,8.98
2018-12-02T20:03:41.078Z,9.02
2018-12-02T20:06:09.480Z,9.05
2018-12-02T20:08:37.685Z,9.04
2018-12-02T20:11:05.951Z,9.05
2018-12-02T20:13:34.167Z,9.06
2018-12-02T20:16:21.501Z,9.10
2018-12-02T20:18:49.729Z,9.21
2018-12-02T20:21:19.902Z,9.17
2018-12-02T20:24:07.221Z,9.23
2018-12-02T20:26:35.465Z,9.24
2018-12-02T20:29:03.681Z,9.25
2018-12-02T20:31:31.929Z,9.29
2018-12-02T20:34:00.184Z,9.32
2018-12-02T20:36:28.430Z,9.30
2018-12-02T20:38:56.657Z,9.32
2018-12-02T20:41:24.888Z,9.34
2018-12-02T20:43:53.218Z,9.35
2018-12-02T20:46:21.390Z,9.37
2018-12-02T20:48:49.698Z,9.40
2018-12-02T20:51:17.897Z,9.41
2018-12-02T20:53:46.140Z,9.40
2018-12-02T20:56:14.360Z,9.41
2018-12-02T20:58:42.619Z,9.42
2018-12-02T21:01:10.828Z,9.45
2018-12-02T21:03:42.009Z,9.44
2018-12-02T21:06:29.701Z,9.44
2018-12-02T21:08:57.962Z,9.45
2018-12-02T21:11:26.170Z,9.43
2018-12-02T21:13:54.440Z,9.42
2018-12-02T21:16:22.675Z,9.40
2018-12-02T21:18:50.915Z,9.38
2018-12-02T21:21:19.133Z,9.43
2018-12-02T21:23:47.395Z,9.46
2018-12-02T21:26:15.600Z,9.47
2018-12-02T21:28:43.900Z,9.50
2018-12-02T21:31:12.104Z,9.50
2018-12-02T21:33:40.354Z,9.53
2018-12-02T21:36:08.581Z,9.50
2018-12-02T21:38:37.026Z,9.54
2018-12-02T21:41:05.408Z,9.55
2018-12-02T21:43:33.690Z,9.52
2018-12-02T21:46:01.903Z,9.54
2018-12-02T21:48:30.149Z,9.54
2018-12-02T21:50:58.364Z,9.55
2018-12-02T21:53:26.604Z,9.55
2018-12-02T21:55:54.814Z,9.53
2018-12-02T21:58:23.019Z,9.56
2018-12-02T22:01:10.368Z,9.53
2018-12-02T22:03:38.632Z,9.55
2018-12-02T22:06:06.847Z,9.55
2018-12-02T22:08:35.058Z,9.55
2018-12-02T22:11:03.307Z,9.53
2018-12-02T22:13:31.509Z,9.56
2018-12-02T22:15:59.753Z,9.57
2018-12-02T22:18:27.955Z,9.56
2018-12-02T22:20:56.211Z,9.54
2018-12-02T22:23:24.444Z,9.52
2018-12-02T22:25:52.683Z,9.52
2018-12-02T22:28:20.899Z,9.51
2018-12-02T22:30:49.135Z,9.49
2018-12-02T22:33:17.617Z,9.47
2018-12-02T22:35:45.859Z,9.44
2018-12-02T22:38:14.116Z,9.41
2018-12-02T22:40:42.450Z,9.37
2018-12-02T22:43:10.770Z,9.38
2018-12-02T22:45:39.039Z,9.38
2018-12-02T22:48:07.253Z,9.37
2018-12-02T22:50:35.530Z,9.39
2018-12-02T22:53:03.828Z,9.36
2018-12-02T22:55:32.094Z,9.37
2018-12-02T22:58:00.386Z,9.34
2018-12-02T23:01:07.149Z,9.33
2018-12-02T23:03:35.532Z,9.35
2018-12-02T23:06:03.927Z,9.31
2018-12-02T23:08:32.288Z,9.32
2018-12-02T23:11:00.522Z,9.28
2018-12-02T23:13:28.828Z,9.28
2018-12-02T23:15:57.148Z,9.29
2018-12-02T23:18:25.384Z,9.28
2018-12-02T23:20:53.657Z,9.29
2018-12-02T23:23:21.859Z,9.29
2018-12-02T23:25:50.313Z,9.29
2018-12-02T23:28:18.531Z,9.31
2018-12-02T23:30:46.837Z,9.33
2018-12-02T23:33:15.098Z,9.35
2018-12-02T23:35:43.499Z,9.34
2018-12-02T23:38:11.760Z,9.35
2018-12-02T23:40:39.975Z,9.38
2018-12-02T23:43:08.216Z,9.42
2018-12-02T23:45:36.445Z,9.44
2018-12-02T23:48:04.702Z,9.42
2018-12-02T23:50:32.943Z,9.45
2018-12-02T23:53:01.177Z,9.47
2018-12-02T23:55:29.398Z,9.45
2018-12-02T23:57:57.706Z,9.45
